sensor_id;sensor_type;location;lat;lon;timestamp;pressure;altitude;pressure_sealevel;temperature
12918;BMP180;6526;54.312;13.092;2022-08-19T00:00:51;101443.00;;;25.40
12918;BMP180;6526;54.312;13.092;2022-08-19T00:03:17;101439.00;;;25.30
12918;BMP180;6526;54.312;13.092;2022-08-19T00:05:44;101431.00;;;25.30
12918;BMP180;6526;54.312;13.092;2022-08-19T00:08:10;101436.00;;;25.30
12918;BMP180;6526;54.312;13.092;2022-08-19T00:10:36;101435.00;;;25.20
12918;BMP180;6526;54.312;13.092;2022-08-19T00:13:02;101433.00;;;25.30
12918;BMP180;6526;54.312;13.092;2022-08-19T00:15:29;101435.00;;;25.30
12918;BMP180;6526;54.312;13.092;2022-08-19T00:17:55;101447.00;;;25.20
12918;BMP180;6526;54.312;13.092;2022-08-19T00:20:22;101455.00;;;25.20
12918;BMP180;6526;54.312;13.092;2022-08-19T00:22:48;101441.00;;;25.10
12918;BMP180;6526;54.312;13.092;2022-08-19T00:25:15;101451.00;;;25.10
12918;BMP180;6526;54.312;13.092;2022-08-19T00:27:41;101459.00;;;25.10
12918;BMP180;6526;54.312;13.092;2022-08-19T00:30:07;101449.00;;;25.00
12918;BMP180;6526;54.312;13.092;2022-08-19T00:32:36;101456.00;;;25.10
12918;BMP180;6526;54.312;13.092;2022-08-19T00:35:03;101460.00;;;25.10
12918;BMP180;6526;54.312;13.092;2022-08-19T00:37:29;101454.00;;;25.20
12918;BMP180;6526;54.312;13.092;2022-08-19T00:39:55;101447.00;;;25.10
12918;BMP180;6526;54.312;13.092;2022-08-19T00:42:22;101453.00;;;25.10
12918;BMP180;6526;54.312;13.092;2022-08-19T00:44:49;101462.00;;;25.10
12918;BMP180;6526;54.312;13.092;2022-08-19T00:47:16;101456.00;;;25.00
12918;BMP180;6526;54.312;13.092;2022-08-19T00:49:45;101449.00;;;25.00
12918;BMP180;6526;54.312;13.092;2022-08-19T00:52:29;101454.00;;;25.00
12918;BMP180;6526;54.312;13.092;2022-08-19T00:54:57;101459.00;;;25.00
12918;BMP180;6526;54.312;13.092;2022-08-19T00:57:28;101456.00;;;25.00
12918;BMP180;6526;54.312;13.092;2022-08-19T00:59:56;101463.00;;;25.00
12918;BMP180;6526;54.312;13.092;2022-08-19T01:02:23;101466.00;;;25.00
12918;BMP180;6526;54.312;13.092;2022-08-19T01:04:50;101459.00;;;25.10
12918;BMP180;6526;54.312;13.092;2022-08-19T01:07:16;101456.00;;;25.00
12918;BMP180;6526;54.312;13.092;2022-08-19T01:09:42;101454.00;;;25.00
12918;BMP180;6526;54.312;13.092;2022-08-19T01:12:08;101455.00;;;25.00
12918;BMP180;6526;54.312;13.092;2022-08-19T01:14:36;101447.00;;;25.00
12918;BMP180;6526;54.312;13.092;2022-08-19T01:17:04;101454.00;;;25.00
12918;BMP180;6526;54.312;13.092;2022-08-19T01:19:35;101441.00;;;25.00
12918;BMP180;6526;54.312;13.092;2022-08-19T01:22:12;101445.00;;;25.10
12918;BMP180;6526;54.312;13.092;2022-08-19T01:24:40;101438.00;;;25.10
12918;BMP180;6526;54.312;13.092;2022-08-19T01:27:07;101441.00;;;25.10
12918;BMP180;6526;54.312;13.092;2022-08-19T01:29:33;101441.00;;;25.10
12918;BMP180;6526;54.312;13.092;2022-08-19T01:32:01;101434.00;;;25.10
12918;BMP180;6526;54.312;13.092;2022-08-19T01:34:27;101445.00;;;25.10
12918;BMP180;6526;54.312;13.092;2022-08-19T01:36:53;101443.00;;;25.00
12918;BMP180;6526;54.312;13.092;2022-08-19T01:39:23;101435.00;;;25.00
12918;BMP180;6526;54.312;13.092;2022-08-19T01:41:50;101445.00;;;25.00
12918;BMP180;6526;54.312;13.092;2022-08-19T01:44:17;101463.00;;;25.00
12918;BMP180;6526;54.312;13.092;2022-08-19T01:46:48;101466.00;;;25.00
12918;BMP180;6526;54.312;13.092;2022-08-19T01:49:15;101475.00;;;24.90
12918;BMP180;6526;54.312;13.092;2022-08-19T01:51:41;101466.00;;;24.90
12918;BMP180;6526;54.312;13.092;2022-08-19T01:54:13;101475.00;;;25.00
12918;BMP180;6526;54.312;13.092;2022-08-19T01:56:40;101470.00;;;25.10
12918;BMP180;6526;54.312;13.092;2022-08-19T01:59:12;101476.00;;;25.10
12918;BMP180;6526;54.312;13.092;2022-08-19T02:01:39;101476.00;;;25.10
12918;BMP180;6526;54.312;13.092;2022-08-19T02:04:06;101476.00;;;25.10
12918;BMP180;6526;54.312;13.092;2022-08-19T02:06:32;101469.00;;;25.20
12918;BMP180;6526;54.312;13.092;2022-08-19T02:08:59;101460.00;;;25.20
12918;BMP180;6526;54.312;13.092;2022-08-19T02:11:28;101458.00;;;25.20
12918;BMP180;6526;54.312;13.092;2022-08-19T02:13:57;101465.00;;;25.20
12918;BMP180;6526;54.312;13.092;2022-08-19T02:16:24;101454.00;;;25.30
12918;BMP180;6526;54.312;13.092;2022-08-19T02:18:50;101446.00;;;25.20
12918;BMP180;6526;54.312;13.092;2022-08-19T02:21:18;101437.00;;;25.20
12918;BMP180;6526;54.312;13.092;2022-08-19T02:23:44;101416.00;;;25.10
12918;BMP180;6526;54.312;13.092;2022-08-19T02:26:13;101428.00;;;25.00
12918;BMP180;6526;54.312;13.092;2022-08-19T02:28:40;101420.00;;;25.10
12918;BMP180;6526;54.312;13.092;2022-08-19T02:31:15;101415.00;;;24.90
12918;BMP180;6526;54.312;13.092;2022-08-19T02:33:42;101415.00;;;24.90
12918;BMP180;6526;54.312;13.092;2022-08-19T02:36:09;101435.00;;;24.90
12918;BMP180;6526;54.312;13.092;2022-08-19T02:38:36;101436.00;;;24.90
12918;BMP180;6526;54.312;13.092;2022-08-19T02:41:11;101439.00;;;24.90
12918;BMP180;6526;54.312;13.092;2022-08-19T02:43:38;101424.00;;;24.90
12918;BMP180;6526;54.312;13.092;2022-08-19T02:46:35;101430.00;;;24.80
12918;BMP180;6526;54.312;13.092;2022-08-19T02:49:04;101435.00;;;24.90
12918;BMP180;6526;54.312;13.092;2022-08-19T02:51:38;101437.00;;;24.80
12918;BMP180;6526;54.312;13.092;2022-08-19T02:54:05;101444.00;;;24.80
12918;BMP180;6526;54.312;13.092;2022-08-19T02:56:33;101449.00;;;24.80
12918;BMP180;6526;54.312;13.092;2022-08-19T02:58:59;101447.00;;;24.70
12918;BMP180;6526;54.312;13.092;2022-08-19T03:01:28;101435.00;;;24.70
12918;BMP180;6526;54.312;13.092;2022-08-19T03:03:56;101427.00;;;24.70
12918;BMP180;6526;54.312;13.092;2022-08-19T03:06:23;101423.00;;;24.80
12918;BMP180;6526;54.312;13.092;2022-08-19T03:08:50;101421.00;;;24.80
12918;BMP180;6526;54.312;13.092;2022-08-19T03:11:28;101425.00;;;24.80
12918;BMP180;6526;54.312;13.092;2022-08-19T03:13:55;101433.00;;;24.70
12918;BMP180;6526;54.312;13.092;2022-08-19T03:16:24;101417.00;;;24.80
12918;BMP180;6526;54.312;13.092;2022-08-19T03:18:52;101427.00;;;24.80
12918;BMP180;6526;54.312;13.092;2022-08-19T03:21:20;101434.00;;;24.80
12918;BMP180;6526;54.312;13.092;2022-08-19T03:23:47;101429.00;;;24.70
12918;BMP180;6526;54.312;13.092;2022-08-19T03:26:13;101436.00;;;24.70
12918;BMP180;6526;54.312;13.092;2022-08-19T03:28:41;101437.00;;;24.70
12918;BMP180;6526;54.312;13.092;2022-08-19T03:31:13;101439.00;;;24.70
12918;BMP180;6526;54.312;13.092;2022-08-19T03:33:39;101439.00;;;24.70
12918;BMP180;6526;54.312;13.092;2022-08-19T03:38:33;101444.00;;;24.80
12918;BMP180;6526;54.312;13.092;2022-08-19T03:41:04;101435.00;;;24.80
12918;BMP180;6526;54.312;13.092;2022-08-19T03:43:33;101447.00;;;24.90
12918;BMP180;6526;54.312;13.092;2022-08-19T03:46:01;101456.00;;;24.80
12918;BMP180;6526;54.312;13.092;2022-08-19T03:48:28;101451.00;;;24.80
12918;BMP180;6526;54.312;13.092;2022-08-19T03:50:55;101463.00;;;24.90
12918;BMP180;6526;54.312;13.092;2022-08-19T03:53:23;101455.00;;;24.90
12918;BMP180;6526;54.312;13.092;2022-08-19T03:55:49;101452.00;;;24.80
12918;BMP180;6526;54.312;13.092;2022-08-19T03:58:15;101454.00;;;24.90
12918;BMP180;6526;54.312;13.092;2022-08-19T04:00:42;101460.00;;;25.00
12918;BMP180;6526;54.312;13.092;2022-08-19T04:03:09;101453.00;;;24.90
12918;BMP180;6526;54.312;13.092;2022-08-19T04:05:35;101467.00;;;25.00
12918;BMP180;6526;54.312;13.092;2022-08-19T04:08:01;101458.00;;;25.10
12918;BMP180;6526;54.312;13.092;2022-08-19T04:10:27;101448.00;;;25.20
12918;BMP180;6526;54.312;13.092;2022-08-19T04:12:54;101452.00;;;25.20
12918;BMP180;6526;54.312;13.092;2022-08-19T04:15:20;101454.00;;;25.30
12918;BMP180;6526;54.312;13.092;2022-08-19T04:17:46;101457.00;;;25.30
12918;BMP180;6526;54.312;13.092;2022-08-19T04:20:12;101458.00;;;25.40
12918;BMP180;6526;54.312;13.092;2022-08-19T04:22:38;101478.00;;;25.40
12918;BMP180;6526;54.312;13.092;2022-08-19T04:25:05;101458.00;;;25.40
12918;BMP180;6526;54.312;13.092;2022-08-19T04:27:31;101457.00;;;25.40
12918;BMP180;6526;54.312;13.092;2022-08-19T04:29:59;101467.00;;;25.40
12918;BMP180;6526;54.312;13.092;2022-08-19T04:32:25;101441.00;;;25.30
12918;BMP180;6526;54.312;13.092;2022-08-19T04:34:51;101460.00;;;25.30
12918;BMP180;6526;54.312;13.092;2022-08-19T04:37:17;101469.00;;;25.20
12918;BMP180;6526;54.312;13.092;2022-08-19T04:39:43;101471.00;;;25.20
12918;BMP180;6526;54.312;13.092;2022-08-19T04:42:35;101464.00;;;25.20
12918;BMP180;6526;54.312;13.092;2022-08-19T04:45:06;101464.00;;;25.30
12918;BMP180;6526;54.312;13.092;2022-08-19T04:47:33;101468.00;;;25.30
12918;BMP180;6526;54.312;13.092;2022-08-19T04:49:59;101466.00;;;25.30
12918;BMP180;6526;54.312;13.092;2022-08-19T04:52:25;101461.00;;;25.40
12918;BMP180;6526;54.312;13.092;2022-08-19T04:54:51;101463.00;;;25.40
12918;BMP180;6526;54.312;13.092;2022-08-19T04:57:17;101462.00;;;25.40
12918;BMP180;6526;54.312;13.092;2022-08-19T04:59:44;101456.00;;;25.50
12918;BMP180;6526;54.312;13.092;2022-08-19T05:02:10;101467.00;;;25.50
12918;BMP180;6526;54.312;13.092;2022-08-19T05:04:36;101460.00;;;25.50
12918;BMP180;6526;54.312;13.092;2022-08-19T05:07:05;101464.00;;;25.50
12918;BMP180;6526;54.312;13.092;2022-08-19T05:09:31;101459.00;;;25.50
12918;BMP180;6526;54.312;13.092;2022-08-19T05:11:57;101454.00;;;25.50
12918;BMP180;6526;54.312;13.092;2022-08-19T05:14:23;101453.00;;;25.50
12918;BMP180;6526;54.312;13.092;2022-08-19T05:16:50;101453.00;;;25.50
12918;BMP180;6526;54.312;13.092;2022-08-19T05:19:16;101451.00;;;25.50
12918;BMP180;6526;54.312;13.092;2022-08-19T05:22:01;101455.00;;;25.40
12918;BMP180;6526;54.312;13.092;2022-08-19T05:24:45;101472.00;;;25.40
12918;BMP180;6526;54.312;13.092;2022-08-19T05:27:12;101464.00;;;25.40
12918;BMP180;6526;54.312;13.092;2022-08-19T05:29:38;101465.00;;;25.40
12918;BMP180;6526;54.312;13.092;2022-08-19T05:32:05;101474.00;;;25.40
12918;BMP180;6526;54.312;13.092;2022-08-19T05:34:34;101472.00;;;25.40
12918;BMP180;6526;54.312;13.092;2022-08-19T05:37:02;101489.00;;;25.40
12918;BMP180;6526;54.312;13.092;2022-08-19T05:39:31;101484.00;;;25.30
12918;BMP180;6526;54.312;13.092;2022-08-19T05:42:04;101489.00;;;25.30
12918;BMP180;6526;54.312;13.092;2022-08-19T05:44:36;101498.00;;;25.40
12918;BMP180;6526;54.312;13.092;2022-08-19T05:47:03;101498.00;;;25.50
12918;BMP180;6526;54.312;13.092;2022-08-19T05:49:32;101500.00;;;25.50
12918;BMP180;6526;54.312;13.092;2022-08-19T05:51:58;101503.00;;;25.40
12918;BMP180;6526;54.312;13.092;2022-08-19T05:54:26;101501.00;;;25.40
12918;BMP180;6526;54.312;13.092;2022-08-19T05:56:53;101505.00;;;25.40
12918;BMP180;6526;54.312;13.092;2022-08-19T05:59:21;101507.00;;;25.40
12918;BMP180;6526;54.312;13.092;2022-08-19T06:01:48;101514.00;;;25.40
12918;BMP180;6526;54.312;13.092;2022-08-19T06:04:19;101511.00;;;25.30
12918;BMP180;6526;54.312;13.092;2022-08-19T06:06:47;101506.00;;;25.30
12918;BMP180;6526;54.312;13.092;2022-08-19T06:09:13;101505.00;;;25.30
12918;BMP180;6526;54.312;13.092;2022-08-19T06:11:44;101508.00;;;25.30
12918;BMP180;6526;54.312;13.092;2022-08-19T06:14:17;101507.00;;;25.30
12918;BMP180;6526;54.312;13.092;2022-08-19T06:16:44;101505.00;;;25.40
12918;BMP180;6526;54.312;13.092;2022-08-19T06:19:16;101509.00;;;25.50
12918;BMP180;6526;54.312;13.092;2022-08-19T06:21:44;101499.00;;;25.50
12918;BMP180;6526;54.312;13.092;2022-08-19T06:24:15;101500.00;;;25.40
12918;BMP180;6526;54.312;13.092;2022-08-19T06:26:43;101498.00;;;25.40
12918;BMP180;6526;54.312;13.092;2022-08-19T06:29:11;101500.00;;;25.30
12918;BMP180;6526;54.312;13.092;2022-08-19T06:31:42;101490.00;;;25.40
12918;BMP180;6526;54.312;13.092;2022-08-19T06:34:09;101495.00;;;25.40
12918;BMP180;6526;54.312;13.092;2022-08-19T06:36:38;101497.00;;;25.30
12918;BMP180;6526;54.312;13.092;2022-08-19T06:39:12;101500.00;;;25.30
12918;BMP180;6526;54.312;13.092;2022-08-19T06:41:43;101494.00;;;25.40
12918;BMP180;6526;54.312;13.092;2022-08-19T06:44:09;101494.00;;;25.40
12918;BMP180;6526;54.312;13.092;2022-08-19T06:46:37;101488.00;;;25.50
12918;BMP180;6526;54.312;13.092;2022-08-19T06:49:03;101491.00;;;25.60
12918;BMP180;6526;54.312;13.092;2022-08-19T06:51:29;101490.00;;;25.60
12918;BMP180;6526;54.312;13.092;2022-08-19T06:53:57;101485.00;;;25.50
12918;BMP180;6526;54.312;13.092;2022-08-19T06:56:26;101485.00;;;25.40
12918;BMP180;6526;54.312;13.092;2022-08-19T06:59:03;101482.00;;;25.20
12918;BMP180;6526;54.312;13.092;2022-08-19T07:01:38;101490.00;;;25.10
12918;BMP180;6526;54.312;13.092;2022-08-19T07:04:07;101483.00;;;25.10
12918;BMP180;6526;54.312;13.092;2022-08-19T07:06:34;101487.00;;;25.20
12918;BMP180;6526;54.312;13.092;2022-08-19T07:09:01;101490.00;;;25.20
12918;BMP180;6526;54.312;13.092;2022-08-19T07:11:28;101489.00;;;25.20
12918;BMP180;6526;54.312;13.092;2022-08-19T07:13:54;101492.00;;;25.10
12918;BMP180;6526;54.312;13.092;2022-08-19T07:16:21;101497.00;;;25.10
12918;BMP180;6526;54.312;13.092;2022-08-19T07:18:49;101506.00;;;25.00
12918;BMP180;6526;54.312;13.092;2022-08-19T07:21:19;101505.00;;;25.00
12918;BMP180;6526;54.312;13.092;2022-08-19T07:23:47;101503.00;;;25.00
12918;BMP180;6526;54.312;13.092;2022-08-19T07:26:29;101523.00;;;25.00
12918;BMP180;6526;54.312;13.092;2022-08-19T07:28:56;101508.00;;;25.00
12918;BMP180;6526;54.312;13.092;2022-08-19T07:31:25;101506.00;;;25.00
12918;BMP180;6526;54.312;13.092;2022-08-19T07:33:53;101512.00;;;25.00
12918;BMP180;6526;54.312;13.092;2022-08-19T07:36:23;101515.00;;;25.00
12918;BMP180;6526;54.312;13.092;2022-08-19T07:38:51;101521.00;;;25.00
12918;BMP180;6526;54.312;13.092;2022-08-19T07:41:21;101514.00;;;25.10
12918;BMP180;6526;54.312;13.092;2022-08-19T07:43:48;101522.00;;;25.00
12918;BMP180;6526;54.312;13.092;2022-08-19T07:46:16;101520.00;;;25.00
12918;BMP180;6526;54.312;13.092;2022-08-19T07:48:44;101522.00;;;25.10
12918;BMP180;6526;54.312;13.092;2022-08-19T07:51:15;101519.00;;;25.20
12918;BMP180;6526;54.312;13.092;2022-08-19T07:53:42;101525.00;;;25.10
12918;BMP180;6526;54.312;13.092;2022-08-19T07:56:11;101526.00;;;25.10
12918;BMP180;6526;54.312;13.092;2022-08-19T07:58:43;101531.00;;;25.10
12918;BMP180;6526;54.312;13.092;2022-08-19T08:01:15;101531.00;;;25.10
12918;BMP180;6526;54.312;13.092;2022-08-19T08:03:42;101518.00;;;25.00
12918;BMP180;6526;54.312;13.092;2022-08-19T08:06:26;101531.00;;;25.00
12918;BMP180;6526;54.312;13.092;2022-08-19T08:09:11;101540.00;;;25.00
12918;BMP180;6526;54.312;13.092;2022-08-19T08:11:51;101543.00;;;25.00
12918;BMP180;6526;54.312;13.092;2022-08-19T08:14:23;101542.00;;;25.10
12918;BMP180;6526;54.312;13.092;2022-08-19T08:16:50;101543.00;;;25.10
12918;BMP180;6526;54.312;13.092;2022-08-19T08:19:18;101531.00;;;25.20
12918;BMP180;6526;54.312;13.092;2022-08-19T08:21:46;101531.00;;;25.10
12918;BMP180;6526;54.312;13.092;2022-08-19T08:24:13;101535.00;;;25.00
12918;BMP180;6526;54.312;13.092;2022-08-19T08:26:39;101520.00;;;25.00
12918;BMP180;6526;54.312;13.092;2022-08-19T08:29:06;101515.00;;;25.00
12918;BMP180;6526;54.312;13.092;2022-08-19T08:31:33;101518.00;;;25.00
12918;BMP180;6526;54.312;13.092;2022-08-19T08:34:00;101514.00;;;24.90
12918;BMP180;6526;54.312;13.092;2022-08-19T08:36:26;101520.00;;;24.90
12918;BMP180;6526;54.312;13.092;2022-08-19T08:38:53;101517.00;;;24.90
12918;BMP180;6526;54.312;13.092;2022-08-19T08:43:56;101522.00;;;24.80
12918;BMP180;6526;54.312;13.092;2022-08-19T08:46:39;101523.00;;;24.80
12918;BMP180;6526;54.312;13.092;2022-08-19T08:52:00;101517.00;;;25.00
12918;BMP180;6526;54.312;13.092;2022-08-19T08:54:42;101511.00;;;25.00
12918;BMP180;6526;54.312;13.092;2022-08-19T08:57:21;101513.00;;;25.00
12918;BMP180;6526;54.312;13.092;2022-08-19T08:59:51;101503.00;;;25.20
12918;BMP180;6526;54.312;13.092;2022-08-19T09:02:18;101499.00;;;25.10
12918;BMP180;6526;54.312;13.092;2022-08-19T09:04:45;101504.00;;;25.00
12918;BMP180;6526;54.312;13.092;2022-08-19T09:10:22;101492.00;;;25.20
12918;BMP180;6526;54.312;13.092;2022-08-19T09:13:09;101497.00;;;25.10
12918;BMP180;6526;54.312;13.092;2022-08-19T09:15:45;101493.00;;;25.10
12918;BMP180;6526;54.312;13.092;2022-08-19T09:18:14;101494.00;;;25.10
12918;BMP180;6526;54.312;13.092;2022-08-19T09:20:40;101489.00;;;25.10
12918;BMP180;6526;54.312;13.092;2022-08-19T09:23:06;101491.00;;;25.10
12918;BMP180;6526;54.312;13.092;2022-08-19T09:25:32;101479.00;;;25.20
12918;BMP180;6526;54.312;13.092;2022-08-19T09:28:00;101490.00;;;25.20
12918;BMP180;6526;54.312;13.092;2022-08-19T09:30:31;101484.00;;;25.20
12918;BMP180;6526;54.312;13.092;2022-08-19T09:32:57;101487.00;;;25.30
12918;BMP180;6526;54.312;13.092;2022-08-19T09:35:25;101494.00;;;25.30
12918;BMP180;6526;54.312;13.092;2022-08-19T09:37:55;101492.00;;;25.30
12918;BMP180;6526;54.312;13.092;2022-08-19T09:40:21;101494.00;;;25.30
12918;BMP180;6526;54.312;13.092;2022-08-19T09:42:47;101494.00;;;25.30
12918;BMP180;6526;54.312;13.092;2022-08-19T09:45:15;101496.00;;;25.30
12918;BMP180;6526;54.312;13.092;2022-08-19T09:47:42;101495.00;;;25.40
12918;BMP180;6526;54.312;13.092;2022-08-19T09:50:11;101490.00;;;25.40
12918;BMP180;6526;54.312;13.092;2022-08-19T09:52:38;101496.00;;;25.40
12918;BMP180;6526;54.312;13.092;2022-08-19T09:55:05;101494.00;;;25.50
12918;BMP180;6526;54.312;13.092;2022-08-19T09:57:32;101498.00;;;25.50
12918;BMP180;6526;54.312;13.092;2022-08-19T09:59:58;101500.00;;;25.50
12918;BMP180;6526;54.312;13.092;2022-08-19T10:02:25;101503.00;;;25.50
12918;BMP180;6526;54.312;13.092;2022-08-19T10:04:51;101502.00;;;25.50
12918;BMP180;6526;54.312;13.092;2022-08-19T10:07:36;101496.00;;;25.60
12918;BMP180;6526;54.312;13.092;2022-08-19T10:10:04;101498.00;;;25.50
12918;BMP180;6526;54.312;13.092;2022-08-19T10:12:32;101502.00;;;25.60
12918;BMP180;6526;54.312;13.092;2022-08-19T10:14:59;101501.00;;;25.60
12918;BMP180;6526;54.312;13.092;2022-08-19T10:17:26;101495.00;;;25.70
12918;BMP180;6526;54.312;13.092;2022-08-19T10:19:53;101489.00;;;25.70
12918;BMP180;6526;54.312;13.092;2022-08-19T10:22:19;101490.00;;;25.70
12918;BMP180;6526;54.312;13.092;2022-08-19T10:24:48;101494.00;;;25.70
12918;BMP180;6526;54.312;13.092;2022-08-19T10:27:15;101495.00;;;25.70
12918;BMP180;6526;54.312;13.092;2022-08-19T10:29:41;101487.00;;;25.70
12918;BMP180;6526;54.312;13.092;2022-08-19T10:32:08;101501.00;;;25.60
12918;BMP180;6526;54.312;13.092;2022-08-19T10:34:36;101497.00;;;25.70
12918;BMP180;6526;54.312;13.092;2022-08-19T10:37:04;101514.00;;;25.80
12918;BMP180;6526;54.312;13.092;2022-08-19T10:39:35;101496.00;;;25.80
12918;BMP180;6526;54.312;13.092;2022-08-19T10:42:06;101500.00;;;25.70
12918;BMP180;6526;54.312;13.092;2022-08-19T10:44:33;101510.00;;;25.70
12918;BMP180;6526;54.312;13.092;2022-08-19T10:47:01;101505.00;;;25.80
12918;BMP180;6526;54.312;13.092;2022-08-19T10:49:28;101500.00;;;25.80
12918;BMP180;6526;54.312;13.092;2022-08-19T10:51:54;101506.00;;;25.80
12918;BMP180;6526;54.312;13.092;2022-08-19T10:54:39;101504.00;;;25.80
12918;BMP180;6526;54.312;13.092;2022-08-19T10:57:24;101500.00;;;25.90
12918;BMP180;6526;54.312;13.092;2022-08-19T10:59:55;101504.00;;;25.80
12918;BMP180;6526;54.312;13.092;2022-08-19T11:02:21;101508.00;;;25.80
12918;BMP180;6526;54.312;13.092;2022-08-19T11:04:47;101507.00;;;25.70
12918;BMP180;6526;54.312;13.092;2022-08-19T11:07:16;101506.00;;;25.60
12918;BMP180;6526;54.312;13.092;2022-08-19T11:09:43;101510.00;;;25.70
12918;BMP180;6526;54.312;13.092;2022-08-19T11:12:10;101495.00;;;25.80
12918;BMP180;6526;54.312;13.092;2022-08-19T11:14:38;101494.00;;;25.80
12918;BMP180;6526;54.312;13.092;2022-08-19T11:17:05;101504.00;;;25.80
12918;BMP180;6526;54.312;13.092;2022-08-19T11:19:31;101507.00;;;25.70
12918;BMP180;6526;54.312;13.092;2022-08-19T11:21:58;101511.00;;;25.60
12918;BMP180;6526;54.312;13.092;2022-08-19T11:24:27;101507.00;;;25.60
12918;BMP180;6526;54.312;13.092;2022-08-19T11:26:58;101498.00;;;25.60
12918;BMP180;6526;54.312;13.092;2022-08-19T11:29:26;101490.00;;;25.70
12918;BMP180;6526;54.312;13.092;2022-08-19T11:31:54;101499.00;;;25.70
12918;BMP180;6526;54.312;13.092;2022-08-19T11:34:23;101499.00;;;25.60
12918;BMP180;6526;54.312;13.092;2022-08-19T11:36:50;101498.00;;;25.50
12918;BMP180;6526;54.312;13.092;2022-08-19T11:39:19;101503.00;;;25.50
12918;BMP180;6526;54.312;13.092;2022-08-19T11:41:46;101496.00;;;25.60
12918;BMP180;6526;54.312;13.092;2022-08-19T11:44:12;101494.00;;;25.50
12918;BMP180;6526;54.312;13.092;2022-08-19T11:46:42;101495.00;;;25.50
12918;BMP180;6526;54.312;13.092;2022-08-19T11:49:12;101510.00;;;25.60
12918;BMP180;6526;54.312;13.092;2022-08-19T11:51:39;101497.00;;;25.60
12918;BMP180;6526;54.312;13.092;2022-08-19T11:54:06;101497.00;;;25.40
12918;BMP180;6526;54.312;13.092;2022-08-19T11:56:32;101495.00;;;25.50
12918;BMP180;6526;54.312;13.092;2022-08-19T11:58:58;101470.00;;;25.50
12918;BMP180;6526;54.312;13.092;2022-08-19T12:01:26;101493.00;;;25.70
12918;BMP180;6526;54.312;13.092;2022-08-19T12:03:54;101500.00;;;25.70
12918;BMP180;6526;54.312;13.092;2022-08-19T12:06:29;101499.00;;;25.70
12918;BMP180;6526;54.312;13.092;2022-08-19T12:09:01;101491.00;;;25.60
12918;BMP180;6526;54.312;13.092;2022-08-19T12:11:29;101496.00;;;25.70
12918;BMP180;6526;54.312;13.092;2022-08-19T12:13:55;101501.00;;;25.60
12918;BMP180;6526;54.312;13.092;2022-08-19T12:16:27;101493.00;;;25.60
12918;BMP180;6526;54.312;13.092;2022-08-19T12:18:54;101493.00;;;25.60
12918;BMP180;6526;54.312;13.092;2022-08-19T12:21:23;101496.00;;;25.70
12918;BMP180;6526;54.312;13.092;2022-08-19T12:23:51;101493.00;;;25.70
12918;BMP180;6526;54.312;13.092;2022-08-19T12:26:17;101496.00;;;25.70
12918;BMP180;6526;54.312;13.092;2022-08-19T12:28:44;101490.00;;;25.80
12918;BMP180;6526;54.312;13.092;2022-08-19T12:31:10;101492.00;;;25.70
12918;BMP180;6526;54.312;13.092;2022-08-19T12:33:41;101500.00;;;25.70
12918;BMP180;6526;54.312;13.092;2022-08-19T12:36:09;101506.00;;;25.70
12918;BMP180;6526;54.312;13.092;2022-08-19T12:38:36;101510.00;;;25.80
12918;BMP180;6526;54.312;13.092;2022-08-19T12:41:03;101504.00;;;25.60
12918;BMP180;6526;54.312;13.092;2022-08-19T12:43:32;101501.00;;;25.50
12918;BMP180;6526;54.312;13.092;2022-08-19T12:45:58;101514.00;;;25.50
12918;BMP180;6526;54.312;13.092;2022-08-19T12:48:24;101505.00;;;25.40
12918;BMP180;6526;54.312;13.092;2022-08-19T12:50:50;101511.00;;;25.40
12918;BMP180;6526;54.312;13.092;2022-08-19T12:53:16;101508.00;;;25.40
12918;BMP180;6526;54.312;13.092;2022-08-19T12:55:43;101516.00;;;25.30
12918;BMP180;6526;54.312;13.092;2022-08-19T12:58:10;101527.00;;;25.30
12918;BMP180;6526;54.312;13.092;2022-08-19T13:00:36;101520.00;;;25.30
12918;BMP180;6526;54.312;13.092;2022-08-19T13:03:02;101506.00;;;25.30
12918;BMP180;6526;54.312;13.092;2022-08-19T13:05:31;101515.00;;;25.30
12918;BMP180;6526;54.312;13.092;2022-08-19T13:07:59;101494.00;;;25.30
12918;BMP180;6526;54.312;13.092;2022-08-19T13:10:29;101510.00;;;25.30
12918;BMP180;6526;54.312;13.092;2022-08-19T13:12:57;101503.00;;;25.30
12918;BMP180;6526;54.312;13.092;2022-08-19T13:15:25;101503.00;;;25.30
12918;BMP180;6526;54.312;13.092;2022-08-19T13:17:52;101510.00;;;25.30
12918;BMP180;6526;54.312;13.092;2022-08-19T13:20:21;101503.00;;;25.20
12918;BMP180;6526;54.312;13.092;2022-08-19T13:22:47;101501.00;;;25.30
12918;BMP180;6526;54.312;13.092;2022-08-19T13:25:14;101494.00;;;25.30
12918;BMP180;6526;54.312;13.092;2022-08-19T13:27:43;101507.00;;;25.30
12918;BMP180;6526;54.312;13.092;2022-08-19T13:30:11;101502.00;;;25.20
12918;BMP180;6526;54.312;13.092;2022-08-19T13:32:56;101503.00;;;25.20
12918;BMP180;6526;54.312;13.092;2022-08-19T13:35:39;101496.00;;;25.20
12918;BMP180;6526;54.312;13.092;2022-08-19T13:38:06;101494.00;;;25.30
12918;BMP180;6526;54.312;13.092;2022-08-19T13:40:33;101488.00;;;25.40
12918;BMP180;6526;54.312;13.092;2022-08-19T13:43:03;101487.00;;;25.30
12918;BMP180;6526;54.312;13.092;2022-08-19T13:45:31;101492.00;;;25.40
12918;BMP180;6526;54.312;13.092;2022-08-19T13:47:59;101487.00;;;25.40
12918;BMP180;6526;54.312;13.092;2022-08-19T13:50:28;101494.00;;;25.50
12918;BMP180;6526;54.312;13.092;2022-08-19T13:52:55;101492.00;;;25.50
12918;BMP180;6526;54.312;13.092;2022-08-19T13:55:22;101489.00;;;25.50
12918;BMP180;6526;54.312;13.092;2022-08-19T13:57:58;101491.00;;;25.60
12918;BMP180;6526;54.312;13.092;2022-08-19T14:00:27;101486.00;;;25.50
12918;BMP180;6526;54.312;13.092;2022-08-19T14:02:55;101479.00;;;25.50
12918;BMP180;6526;54.312;13.092;2022-08-19T14:05:22;101473.00;;;25.50
12918;BMP180;6526;54.312;13.092;2022-08-19T14:07:48;101480.00;;;25.50
12918;BMP180;6526;54.312;13.092;2022-08-19T14:10:15;101485.00;;;25.50
12918;BMP180;6526;54.312;13.092;2022-08-19T14:12:42;101489.00;;;25.50
12918;BMP180;6526;54.312;13.092;2022-08-19T14:15:09;101480.00;;;25.40